EW4479 Weather Reports


Display with metric or nautical units.
time (UTC)temp
F
wind
direction
speed
MPH
gust
MPH
rain 1hr
in
rain 24hr
in
rain mn
in
humidity
%
barometer
mb
20220817021100 55 252 0.0 0.0 0.00 0.00 0.00 89 1012.4
20220817020100 56 252 0.0 0.0 0.00 0.00 0.00 88 1012.4
20220817015101 56 252 0.0 0.0 0.00 0.00 0.00 86 1012.6
20220817012603 56 252 0.0 0.0 0.00 0.00 0.00 87 1012.6
20220817010102 55 252 0.0 0.0 0.00 0.00 0.00 88 1012.6
20220817005601 55 252 0.0 0.0 0.00 0.00 0.00 87 1012.8
20220817004601 57 252 0.0 0.0 0.00 0.00 0.00 85 1012.8
20220817002101 58 252 0.0 0.0 0.00 0.00 0.00 84 1013.0
20220817001601 58 252 0.0 0.0 0.00 0.00 0.00 84 1013.0
20220817001100 58 252 0.0 0.0 0.00 0.00 0.00 83 1013.1
20220816235102 56 252 0.0 0.0 0.00 0.00 0.00 87 1013.1
20220816234602 56 252 0.0 0.0 0.00 0.00 0.00 87 1013.1
20220816225529 59 252 0.0 0.0 0.00 0.00 0.00 82 1013.4
20220816225029 59 252 0.0 0.0 0.00 0.00 0.00 82 1013.5
20220816223529 60 252 0.0 0.0 0.00 0.00 0.00 80 1013.4
20220816222529 60 252 0.0 0.0 0.00 0.00 0.00 80 1013.3
20220816222030 60 252 0.0 0.0 0.00 0.00 0.00 79 1013.3
20220816215528 61 252 0.0 0.0 0.00 0.00 0.00 77 1013.3
20220816215029 61 252 0.0 0.0 0.00 0.00 0.00 77 1013.3
20220816214529 61 252 0.0 0.0 0.00 0.00 0.00 78 1013.3
20220816213029 61 252 0.0 0.0 0.00 0.00 0.00 77 1013.4
20220816212528 62 252 0.0 0.0 0.00 0.00 0.00 77 1013.4
20220816205029 62 252 0.0 0.0 0.00 0.00 0.00 75 1013.3
20220816203010 63 252 0.0 0.0 0.00 0.00 0.00 73 1013.3
20220816202002 64 252 0.0 0.0 0.00 0.00 0.00 73 1013.2
20220816200459 64 256 0.0 0.0 0.00 0.00 0.00 73 1013.2
20220816195956 64 256 0.0 1.0 0.00 0.00 0.00 73 1013.2
20220816194446 65 252 0.0 0.0 0.00 0.00 0.00 71 1013.1
20220816193436 66 252 0.0 0.0 0.00 0.00 0.00 68 1013.1
20220816191931 67 252 0.0 0.0 0.00 0.00 0.00 64 1013.0
20220816190930 68 252 0.0 0.0 0.00 0.00 0.00 63 1013.0
20220816185428 69 252 0.0 0.0 0.00 0.00 0.00 63 1012.8
20220816184928 70 252 0.0 0.0 0.00 0.00 0.00 62 1012.8
20220816184430 70 252 0.0 0.0 0.00 0.00 0.00 62 1012.6
20220816183929 71 252 0.0 0.0 0.00 0.00 0.00 62 1012.6
20220816181429 74 252 0.0 0.0 0.00 0.00 0.00 56 1012.5
20220816180929 74 252 0.0 0.0 0.00 0.00 0.00 53 1012.4
20220816175929 75 252 0.0 0.0 0.00 0.00 0.00 54 1012.5
20220816174929 76 252 0.0 0.0 0.00 0.00 0.00 49 1012.4
20220816172928 80 256 1.0 2.0 0.00 0.00 0.00 39 1012.4
20220816172429 80 257 0.0 2.0 0.00 0.00 0.00 40 1012.4
20220816171931 80 284 0.0 3.0 0.00 0.00 0.00 40 1012.2
20220816170936 80 271 0.0 1.0 0.00 0.00 0.00 39 1012.2
20220816170427 80 271 0.0 3.0 0.00 0.00 0.00 37 1012.3
20220816165926 81 279 0.0 3.0 0.00 0.00 0.00 39 1012.3
20220816162602 82 327 0.0 4.0 0.00 0.00 0.00 38 1012.3
20220816161600 82 256 1.0 5.0 0.00 0.00 0.00 37 1012.4
20220816160603 82 220 1.0 5.0 0.00 0.00 0.00 37 1012.3
20220816154102 83 272 2.0 6.0 0.00 0.00 0.00 37 1012.5
20220816153101 83 251 1.0 3.0 0.00 0.00 0.00 38 1012.3
20220816152601 82 263 1.0 6.0 0.00 0.00 0.00 37 1012.3
20220816152101 83 298 2.0 6.0 0.00 0.00 0.00 37 1012.2
20220816144102 83 268 3.0 9.0 0.00 0.00 0.00 35 1012.1
20220816143103 84 259 2.0 7.0 0.00 0.00 0.00 36 1012.2
20220816141100 84 284 3.0 9.0 0.00 0.00 0.00 37 1012.4
20220816140101 83 286 3.0 8.0 0.00 0.00 0.00 35 1012.5
20220816135601 83 157 2.0 5.0 0.00 0.00 0.00 35 1012.3
20220816133603 83 216 5.0 9.0 0.00 0.00 0.00 37 1012.6
20220816132602 83 281 4.0 10.0 0.00 0.00 0.00 38 1012.6
20220816132102 81 186 1.0 5.0 0.00 0.00 0.00 40 1012.6
20220816131101 83 260 3.0 8.0 0.00 0.00 0.00 36 1012.8
20220816130601 83 320 3.0 8.0 0.00 0.00 0.00 38 1012.6
20220816130100 82 279 2.0 8.0 0.00 0.00 0.00 38 1012.6
20220816124601 83 260 2.0 8.0 0.00 0.00 0.00 36 1012.8
20220816124100 82 263 5.0 8.0 0.00 0.00 0.00 35 1012.9
20220816121602 83 187 3.0 7.0 0.00 0.00 0.00 37 1013.0
20220816121101 83 261 2.0 9.0 0.00 0.00 0.00 39 1013.0
20220816120603 82 343 2.0 9.0 0.00 0.00 0.00 40 1013.0
20220816115602 82 214 1.0 5.0 0.00 0.00 0.00 40 1013.0
20220816115103 81 193 3.0 6.0 0.00 0.00 0.00 42 1013.0
20220816113606 81 259 2.0 4.0 0.00 0.00 0.00 43 1013.1
20220816113103 81 241 1.0 4.0 0.00 0.00 0.00 40 1013.1
20220816105604 79 268 2.0 4.0 0.00 0.00 0.00 45 1013.1
20220816105101 80 242 2.0 7.0 0.00 0.00 0.00 45 1013.2
20220816104601 80 338 3.0 7.0 0.00 0.00 0.00 47 1013.2
20220816103600 80 234 1.0 6.0 0.00 0.00 0.00 46 1013.2
20220816103102 79 156 2.0 8.0 0.00 0.00 0.00 45 1013.1
20220816102601 79 123 3.0 10.0 0.00 0.00 0.00 45 1013.2
20220816101602 77 145 1.0 4.0 0.00 0.00 0.00 48 1013.2
20220816101101 77 128 0.0 7.0 0.00 0.00 0.00 49 1013.2
20220816095058 77 158 2.0 4.0 0.00 0.00 0.00 51 1013.3
20220816093047 75 64 1.0 8.0 0.00 0.00 0.00 53 1013.4
20220816091545 75 289 2.0 4.0 0.00 0.00 0.00 51 1013.4
20220816090046 74 161 1.0 8.0 0.00 0.00 0.00 54 1013.3
20220816085542 74 95 1.0 4.0 0.00 0.00 0.00 55 1013.5
20220816084540 74 184 2.0 6.0 0.00 0.00 0.00 56 1013.5
20220816084038 74 156 1.0 3.0 0.00 0.00 0.00 56 1013.4
20220816083533 74 115 1.0 4.0 0.00 0.00 0.00 55 1013.4
20220816082031 73 154 1.0 5.0 0.00 0.00 0.00 57 1013.4
20220816081529 73 113 2.0 4.0 0.00 0.00 0.00 58 1013.5
20220816075529 71 112 1.0 5.0 0.00 0.00 0.00 59 1013.3
20220816074529 71 186 1.0 5.0 0.00 0.00 0.00 60 1013.2
20220816073529 69 135 0.0 3.0 0.00 0.00 0.00 63 1013.3
20220816070530 67 180 1.0 3.0 0.00 0.00 0.00 67 1013.2
20220816065529 67 178 1.0 3.0 0.00 0.00 0.00 70 1013.1
20220816064032 65 184 0.0 3.0 0.00 0.00 0.00 73 1013.1
20220816063530 65 184 1.0 4.0 0.00 0.00 0.00 73 1013.2
20220816062032 64 184 2.0 5.0 0.00 0.00 0.00 75 1013.2
20220816060529 62 200 0.0 5.0 0.00 0.00 0.00 80 1013.2
20220816060028 62 174 2.0 5.0 0.00 0.00 0.00 81 1013.2
20220816053528 60 168 0.0 4.0 0.00 0.00 0.00 85 1013.0
20220816052529 58 168 1.0 4.0 0.00 0.00 0.00 89 1012.9
20220816051030 56 97 0.0 1.0 0.00 0.00 0.00 90 1012.9
20220816045528 56 162 0.0 1.0 0.00 0.00 0.00 89 1012.8
20220816045029 55 162 0.0 1.0 0.00 0.00 0.00 90 1012.9
20220816044530 55 162 0.0 0.0 0.00 0.00 0.00 91 1013.0
20220816044030 54 162 0.0 0.0 0.00 0.00 0.00 92 1012.9
20220816042530 54 162 0.0 0.0 0.00 0.00 0.00 90 1012.6
20220816041530 55 162 0.0 0.0 0.00 0.00 0.00 90 1012.9
20220816040530 55 162 0.0 0.0 0.00 0.00 0.00 90 1012.6
20220816040028 55 162 0.0 0.0 0.00 0.00 0.00 90 1012.8
20220816035029 56 162 0.0 4.0 0.00 0.00 0.00 88 1012.6
20220816034531 56 98 2.0 4.0 0.00 0.00 0.00 87 1012.6
20220816033530 56 106 0.0 3.0 0.00 0.00 0.00 89 1012.5
20220816033028 56 180 1.0 3.0 0.00 0.00 0.00 89 1012.6
20220816032025 56 209 0.0 1.0 0.00 0.00 0.00 91 1012.6
20220816030018 56 209 0.0 0.0 0.00 0.00 0.00 89 1012.5
20220816024001 57 209 0.0 0.0 0.00 0.00 0.00 88 1012.6
20220816023501 57 209 0.0 0.0 0.00 0.00 0.00 87 1012.6